Time;durP1;ratioP1;P1;durP2;ratioP2;P2;SDS_P1;SDS_P2;PMS_P1;PMS_P2;Temp;Humidity;BMP_temperature;BMP_pressure;BME280_temperature;BME280_humidity;BME280_pressure;Samples;Min_cycle;Max_cycle;Signal;HPM_P1;HPM_P2
2023/02/26 00:01:42;;;;;;;;;;;;;;;-0.19;96.33;99357.93;106437;1274;24377;-55
2023/02/26 00:04:11;;;;;;;;;;;;;;;-0.20;96.53;99359.26;106451;1278;24258;-56
2023/02/26 00:06:51;;;;;;;;;;;;;;;-0.19;96.64;99360.68;106559;1278;25367;-58
2023/02/26 00:09:20;;;;;;;;;;;;;;;-0.19;96.74;99360.64;106624;1278;22520;-57
2023/02/26 00:11:50;;;;;;;;;;;;;;;-0.19;96.48;99360.25;106625;1278;25979;-57
2023/02/26 00:14:20;;;;;;;;;;;;;;;-0.18;96.44;99359.23;106666;1261;22721;-57
2023/02/26 00:16:52;;;;;;;;;;;;;;;-0.19;96.04;99362.30;106459;1263;22518;-58
2023/02/26 00:19:21;;;;;;;;;;;;;;;-0.19;95.94;99362.63;106473;1272;25333;-57
2023/02/26 00:21:51;;;;;;;;;;;;;;;-0.19;96.09;99364.52;106580;1278;22626;-54
2023/02/26 00:24:20;;;;;;;;;;;;;;;-0.20;95.65;99369.55;106641;1278;24241;-56
2023/02/26 00:26:49;;;;;;;;;;;;;;;-0.21;95.64;99368.01;106711;1264;22594;-58
2023/02/26 00:29:20;;;;;;;;;;;;;;;-0.22;95.48;99374.67;106409;1278;22519;-56
2023/02/26 00:31:50;;;;;;;;;;;;;;;-0.21;95.55;99380.22;106429;1276;22533;-57
2023/02/26 00:34:19;;;;;;;;;;;;;;;-0.23;95.55;99379.16;106725;1264;25279;-58
2023/02/26 00:36:53;;;;;;;;;;;;;;;-0.23;95.43;99373.52;106683;1278;24286;-56
2023/02/26 00:39:33;;;;;;;;;;;;;;;-0.24;95.70;99378.73;106439;1278;25348;-57
2023/02/26 00:42:03;;;;;;;;;;;;;;;-0.24;95.51;99379.83;106495;1274;22553;-57
2023/02/26 00:44:33;;;;;;;;;;;;;;;-0.24;95.24;99380.13;106656;1278;22521;-54
2023/02/26 00:47:09;;;;;;;;;;;;;;;-0.24;95.39;99386.80;106596;1275;22592;-57
2023/02/26 00:49:47;;;;;;;;;;;;;;;-0.24;95.12;99388.29;106511;1265;25559;-58
2023/02/26 00:52:20;;;;;;;;;;;;;;;-0.25;95.29;99387.77;106463;1278;25298;-58
2023/02/26 00:54:49;;;;;;;;;;;;;;;-0.26;95.04;99391.55;106549;1278;24287;-55
2023/02/26 00:57:19;;;;;;;;;;;;;;;-0.28;95.08;99386.89;106540;1278;24325;-56
2023/02/26 00:59:48;;;;;;;;;;;;;;;-0.29;95.06;99386.91;106484;1271;25621;-57
2023/02/26 01:02:17;;;;;;;;;;;;;;;-0.29;94.95;99390.89;106478;1263;22507;-55
2023/02/26 01:04:47;;;;;;;;;;;;;;;-0.29;94.88;99396.54;106473;1278;22753;-58
2023/02/26 01:07:20;;;;;;;;;;;;;;;-0.29;94.88;99399.22;106533;1272;22554;-56
2023/02/26 01:09:50;;;;;;;;;;;;;;;-0.29;94.84;99396.41;106558;1278;22717;-59
2023/02/26 01:12:19;;;;;;;;;;;;;;;-0.29;94.78;99396.80;106609;1278;22592;-58
2023/02/26 01:14:51;;;;;;;;;;;;;;;-0.30;94.96;99404.72;106641;1274;25328;-57
2023/02/26 01:17:23;;;;;;;;;;;;;;;-0.31;94.91;99413.29;106664;1274;25460;-54
2023/02/26 01:19:54;;;;;;;;;;;;;;;-0.30;95.04;99419.39;106564;1278;23029;-56
2023/02/26 01:22:29;;;;;;;;;;;;;;;-0.30;94.94;99419.77;106602;1278;22568;-57
2023/02/26 01:25:02;;;;;;;;;;;;;;;-0.30;94.86;99424.23;106497;1278;22524;-58
2023/02/26 01:27:32;;;;;;;;;;;;;;;-0.31;94.95;99428.42;106567;1278;22540;-60
2023/02/26 01:30:02;;;;;;;;;;;;;;;-0.32;95.12;99433.38;106607;1278;23032;-58
2023/02/26 01:32:37;;;;;;;;;;;;;;;-0.32;95.36;99432.12;106606;1278;22620;-57
2023/02/26 01:35:09;;;;;;;;;;;;;;;-0.33;95.29;99436.52;106498;1278;26010;-56
2023/02/26 01:37:47;;;;;;;;;;;;;;;-0.34;95.62;99441.88;106570;1274;23916;-57
2023/02/26 01:40:33;;;;;;;;;;;;;;;-0.36;95.66;99441.92;106588;1278;24328;-57
2023/02/26 01:43:06;;;;;;;;;;;;;;;-0.37;95.70;99445.38;106604;1278;22525;-58
2023/02/26 01:45:38;;;;;;;;;;;;;;;-0.38;95.81;99448.85;106671;1275;23366;-55
2023/02/26 01:48:11;;;;;;;;;;;;;;;-0.38;96.05;99451.98;106716;1275;24472;-57
2023/02/26 01:50:41;;;;;;;;;;;;;;;-0.38;96.02;99453.26;106542;1276;22638;-58
2023/02/26 01:53:21;;;;;;;;;;;;;;;-0.38;96.12;99457.80;106721;1278;22525;-55
2023/02/26 01:55:52;;;;;;;;;;;;;;;-0.38;96.10;99461.08;106462;1263;24361;-60
2023/02/26 01:58:22;;;;;;;;;;;;;;;-0.39;96.12;99465.09;106586;1278;24264;-55
2023/02/26 02:00:52;;;;;;;;;;;;;;;-0.39;96.06;99475.59;106438;1278;22669;-54
2023/02/26 02:03:22;;;;;;;;;;;;;;;-0.40;96.13;99471.00;106567;1265;23129;-57
2023/02/26 02:05:53;;;;;;;;;;;;;;;-0.41;96.25;99475.79;106597;1263;22582;-58
2023/02/26 02:08:22;;;;;;;;;;;;;;;-0.42;96.27;99480.05;106579;1278;24272;-58
2023/02/26 02:10:53;;;;;;;;;;;;;;;-0.43;96.37;99477.86;106691;1271;26538;-56
2023/02/26 02:13:30;;;;;;;;;;;;;;;-0.42;96.42;99479.67;106622;1271;23041;-57
2023/02/26 02:16:05;;;;;;;;;;;;;;;-0.43;96.33;99491.05;106477;1271;22540;-57
2023/02/26 02:18:39;;;;;;;;;;;;;;;-0.44;96.33;99495.05;106545;1274;24003;-56
2023/02/26 02:21:22;;;;;;;;;;;;;;;-0.44;96.33;99497.17;106523;1278;25460;-56
2023/02/26 02:23:55;;;;;;;;;;;;;;;-0.45;96.36;99498.73;106621;1274;22527;-56
2023/02/26 02:26:44;;;;;;;;;;;;;;;-0.45;96.32;99500.93;106484;1278;24037;-56
2023/02/26 02:29:29;;;;;;;;;;;;;;;-0.44;96.44;99508.22;106514;1275;23031;-57
2023/02/26 02:32:00;;;;;;;;;;;;;;;-0.45;96.61;99513.95;106036;1268;22925;-58
2023/02/26 02:34:33;;;;;;;;;;;;;;;-0.45;96.66;99512.94;106116;1283;22716;-56
2023/02/26 02:37:06;;;;;;;;;;;;;;;-0.45;96.61;99518.96;106082;1277;24289;-54
2023/02/26 02:39:37;;;;;;;;;;;;;;;-0.45;96.77;99523.52;106105;1283;24296;-58
2023/02/26 02:42:08;;;;;;;;;;;;;;;-0.45;96.72;99525.15;106149;1283;22624;-58
2023/02/26 02:44:39;;;;;;;;;;;;;;;-0.45;96.84;99527.73;106193;1283;24229;-57
2023/02/26 02:47:10;;;;;;;;;;;;;;;-0.46;96.63;99529.87;106041;1283;24396;-57
2023/02/26 02:49:42;;;;;;;;;;;;;;;-0.45;96.80;99535.65;105942;1277;22681;-57
2023/02/26 02:52:13;;;;;;;;;;;;;;;-0.46;96.68;99540.29;106024;1270;24340;-56
2023/02/26 02:54:45;;;;;;;;;;;;;;;-0.46;96.52;99537.63;106081;1283;22523;-57
2023/02/26 02:57:17;;;;;;;;;;;;;;;-0.45;96.46;99543.18;106144;1270;25369;-57
2023/02/26 02:59:48;;;;;;;;;;;;;;;-0.45;96.46;99544.73;105985;1283;24292;-57
2023/02/26 03:02:21;;;;;;;;;;;;;;;-0.44;96.38;99547.39;106001;1282;25915;-57
2023/02/26 03:04:51;;;;;;;;;;;;;;;-0.44;96.16;99548.86;106009;1277;22467;-56
2023/02/26 03:07:20;;;;;;;;;;;;;;;-0.43;96.16;99553.70;106011;1270;23771;-58
2023/02/26 03:09:49;;;;;;;;;;;;;;;-0.42;96.05;99556.03;106329;1273;22521;-61
2023/02/26 03:12:19;;;;;;;;;;;;;;;-0.40;96.08;99563.45;106627;1271;22526;-56
2023/02/26 03:14:48;;;;;;;;;;;;;;;-0.40;95.84;99572.29;106478;1278;22736;-58
2023/02/26 03:17:23;;;;;;;;;;;;;;;-0.39;95.89;99576.89;106567;1271;25508;-58
2023/02/26 03:19:59;;;;;;;;;;;;;;;-0.38;95.13;99576.10;106630;1271;22514;-55
2023/02/26 03:22:32;;;;;;;;;;;;;;;-0.36;95.15;99582.88;106509;1272;25236;-57
2023/02/26 03:25:04;;;;;;;;;;;;;;;-0.36;95.14;99590.16;106668;1278;22522;-57
2023/02/26 03:27:39;;;;;;;;;;;;;;;-0.35;95.19;99592.27;106578;1272;25410;-57
2023/02/26 03:30:10;;;;;;;;;;;;;;;-0.34;95.04;99599.38;106487;1278;25350;-57
2023/02/26 03:32:43;;;;;;;;;;;;;;;-0.33;94.98;99604.54;106547;1271;22630;-59
2023/02/26 03:35:14;;;;;;;;;;;;;;;-0.33;95.21;99606.80;106530;1278;25476;-57
2023/02/26 03:37:45;;;;;;;;;;;;;;;-0.33;94.95;99612.37;106525;1278;25475;-58
2023/02/26 03:40:18;;;;;;;;;;;;;;;-0.34;94.92;99610.42;106575;1264;22627;-57
2023/02/26 03:42:49;;;;;;;;;;;;;;;-0.35;94.65;99618.21;106601;1278;22563;-57
2023/02/26 03:45:22;;;;;;;;;;;;;;;-0.36;94.69;99624.56;106483;1271;22528;-56
2023/02/26 03:47:53;;;;;;;;;;;;;;;-0.36;94.50;99628.56;106532;1271;25371;-55
2023/02/26 03:50:25;;;;;;;;;;;;;;;-0.34;94.59;99632.99;106443;1271;24314;-58
2023/02/26 03:52:55;;;;;;;;;;;;;;;-0.34;94.62;99638.24;106500;1278;24837;-57
2023/02/26 03:55:28;;;;;;;;;;;;;;;-0.33;94.76;99640.27;106520;1272;25476;-59
2023/02/26 03:57:58;;;;;;;;;;;;;;;-0.33;94.69;99642.52;106570;1278;24264;-58
2023/02/26 04:00:28;;;;;;;;;;;;;;;-0.34;94.64;99640.41;106699;1278;22661;-57
2023/02/26 04:02:59;;;;;;;;;;;;;;;-0.34;94.42;99643.56;106514;1278;24247;-55
2023/02/26 04:05:32;;;;;;;;;;;;;;;-0.34;94.37;99648.81;106407;1264;25276;-59
2023/02/26 04:08:02;;;;;;;;;;;;;;;-0.34;94.63;99654.38;106413;1265;22508;-57
2023/02/26 04:10:33;;;;;;;;;;;;;;;-0.33;94.66;99654.59;106413;1278;24256;-56
2023/02/26 04:13:02;;;;;;;;;;;;;;;-0.33;94.52;99662.20;106536;1278;24007;-54
2023/02/26 04:15:32;;;;;;;;;;;;;;;-0.35;94.09;99666.08;106402;1278;22520;-55
2023/02/26 04:18:01;;;;;;;;;;;;;;;-0.38;93.95;99668.39;106384;1278;22587;-57
2023/02/26 04:20:30;;;;;;;;;;;;;;;-0.41;93.61;99672.06;106542;1272;23921;-57
2023/02/26 04:22:59;;;;;;;;;;;;;;;-0.46;93.62;99675.44;106562;1275;22524;-59
2023/02/26 04:25:29;;;;;;;;;;;;;;;-0.47;94.03;99676.46;106519;1272;24788;-58
2023/02/26 04:27:58;;;;;;;;;;;;;;;-0.48;94.00;99678.77;106543;1278;23889;-55
2023/02/26 04:30:27;;;;;;;;;;;;;;;-0.51;94.06;99679.44;106913;1271;24386;-58
2023/02/26 04:32:57;;;;;;;;;;;;;;;-0.52;93.92;99681.81;106396;1278;24216;-58
2023/02/26 04:35:26;;;;;;;;;;;;;;;-0.53;93.90;99687.30;106361;1273;22552;-58
2023/02/26 04:37:55;;;;;;;;;;;;;;;-0.54;93.78;99688.11;106359;1260;22518;-56
2023/02/26 04:40:24;;;;;;;;;;;;;;;-0.55;93.93;99689.69;106447;1278;23185;-56
2023/02/26 04:42:53;;;;;;;;;;;;;;;-0.55;94.06;99689.61;106443;1278;22519;-60
2023/02/26 04:45:23;;;;;;;;;;;;;;;-0.56;93.91;99689.94;106451;1272;24126;-55
2023/02/26 04:47:52;;;;;;;;;;;;;;;-0.56;93.79;99695.50;106384;1278;22574;-57
2023/02/26 04:50:21;;;;;;;;;;;;;;;-0.56;93.95;99696.69;106426;1278;25396;-57
2023/02/26 04:52:50;;;;;;;;;;;;;;;-0.56;94.14;99700.81;106443;1278;22651;-57
2023/02/26 04:55:20;;;;;;;;;;;;;;;-0.55;94.10;99701.21;106444;1271;22518;-57
2023/02/26 04:57:49;;;;;;;;;;;;;;;-0.55;93.60;99707.01;106389;1278;22559;-56
2023/02/26 05:00:19;;;;;;;;;;;;;;;-0.56;93.48;99712.50;106370;1278;24232;-56
2023/02/26 05:02:48;;;;;;;;;;;;;;;-0.57;93.65;99716.59;106506;1278;22603;-58
2023/02/26 05:05:18;;;;;;;;;;;;;;;-0.58;93.49;99716.75;106378;1271;22522;-54
2023/02/26 05:07:47;;;;;;;;;;;;;;;-0.59;93.39;99714.34;106489;1275;22562;-57
2023/02/26 05:10:16;;;;;;;;;;;;;;;-0.60;93.32;99719.69;106415;1278;22616;-56
2023/02/26 05:12:45;;;;;;;;;;;;;;;-0.62;92.80;99726.70;106493;1271;22534;-57
2023/02/26 05:15:14;;;;;;;;;;;;;;;-0.64;92.62;99726.73;106591;1264;22520;-56
2023/02/26 05:17:43;;;;;;;;;;;;;;;-0.66;92.72;99726.06;106501;1271;25414;-55
2023/02/26 05:20:14;;;;;;;;;;;;;;;-0.67;92.89;99724.27;106388;1278;24564;-55
2023/02/26 05:22:43;;;;;;;;;;;;;;;-0.68;92.85;99737.61;106440;1278;22636;-58
2023/02/26 05:25:13;;;;;;;;;;;;;;;-0.70;92.77;99738.51;106329;1271;22632;-54
2023/02/26 05:27:42;;;;;;;;;;;;;;;-0.71;92.94;99739.38;106399;1278;22639;-56
2023/02/26 05:30:13;;;;;;;;;;;;;;;-0.70;93.16;99742.42;106413;1271;22511;-59
2023/02/26 05:32:43;;;;;;;;;;;;;;;-0.71;93.11;99746.27;106593;1278;25292;-57
2023/02/26 05:35:12;;;;;;;;;;;;;;;-0.72;93.08;99753.66;106348;1278;24276;-57
2023/02/26 05:37:41;;;;;;;;;;;;;;;-0.72;92.76;99761.40;106398;1274;25451;-57
2023/02/26 05:40:12;;;;;;;;;;;;;;;-0.73;92.69;99763.29;106269;1278;22519;-58
2023/02/26 05:42:41;;;;;;;;;;;;;;;-0.73;92.73;99766.65;106426;1271;22510;-56
2023/02/26 05:45:11;;;;;;;;;;;;;;;-0.72;92.97;99771.66;106312;1275;22523;-58
2023/02/26 05:47:40;;;;;;;;;;;;;;;-0.72;92.66;99774.32;106413;1265;23127;-58
2023/02/26 05:50:11;;;;;;;;;;;;;;;-0.71;92.78;99782.52;106353;1274;22502;-58
2023/02/26 05:52:40;;;;;;;;;;;;;;;-0.70;92.90;99784.48;106390;1271;22763;-57
2023/02/26 05:55:10;;;;;;;;;;;;;;;-0.69;93.03;99787.04;106338;1278;24387;-57
2023/02/26 05:57:39;;;;;;;;;;;;;;;-0.68;92.89;99791.19;106379;1278;24229;-60
2023/02/26 06:00:09;;;;;;;;;;;;;;;-0.68;92.88;99794.30;106269;1278;25511;-57
2023/02/26 06:02:39;;;;;;;;;;;;;;;-0.66;92.92;99799.61;106416;1271;22537;-57
2023/02/26 06:05:09;;;;;;;;;;;;;;;-0.65;92.81;99807.96;106404;1271;22635;-58
2023/02/26 06:07:38;;;;;;;;;;;;;;;-0.64;92.70;99809.05;106588;1278;25602;-58
2023/02/26 06:10:09;;;;;;;;;;;;;;;-0.63;92.66;99815.60;106308;1272;22504;-58
2023/02/26 06:12:38;;;;;;;;;;;;;;;-0.62;92.31;99821.79;106700;1278;22510;-55
2023/02/26 06:15:09;;;;;;;;;;;;;;;-0.62;92.03;99829.92;106302;1278;22474;-57
2023/02/26 06:17:38;;;;;;;;;;;;;;;-0.62;92.17;99830.87;106421;1270;25279;-56
2023/02/26 06:20:09;;;;;;;;;;;;;;;-0.60;92.56;99835.55;106263;1271;24400;-57
2023/02/26 06:22:38;;;;;;;;;;;;;;;-0.58;92.27;99841.14;106324;1271;24274;-56
2023/02/26 06:25:08;;;;;;;;;;;;;;;-0.57;92.12;99848.27;106291;1263;24375;-57
2023/02/26 06:27:37;;;;;;;;;;;;;;;-0.55;92.31;99853.48;106403;1278;22977;-57
2023/02/26 06:30:07;;;;;;;;;;;;;;;-0.54;92.27;99855.83;106381;1271;24370;-57
2023/02/26 06:32:36;;;;;;;;;;;;;;;-0.50;92.57;99861.57;106394;1265;22515;-56
2023/02/26 06:35:07;;;;;;;;;;;;;;;-0.46;92.60;99869.18;106275;1274;22647;-57
2023/02/26 06:37:36;;;;;;;;;;;;;;;-0.42;92.82;99869.89;106355;1278;25292;-59
2023/02/26 06:40:07;;;;;;;;;;;;;;;-0.38;92.58;99875.73;106512;1278;22763;-58
2023/02/26 06:42:36;;;;;;;;;;;;;;;-0.37;92.31;99883.30;106355;1275;25282;-57
2023/02/26 06:45:07;;;;;;;;;;;;;;;-0.36;92.05;99886.44;106383;1264;24395;-59
2023/02/26 06:47:36;;;;;;;;;;;;;;;-0.36;91.99;99887.30;106262;1278;22638;-56
2023/02/26 06:50:06;;;;;;;;;;;;;;;-0.36;91.95;99893.25;106266;1278;23159;-57
2023/02/26 06:52:35;;;;;;;;;;;;;;;-0.36;92.12;99896.63;106321;1264;25356;-57
2023/02/26 06:55:05;;;;;;;;;;;;;;;-0.34;92.26;99897.99;106343;1271;22527;-58
2023/02/26 06:57:34;;;;;;;;;;;;;;;-0.32;92.24;99898.60;106260;1278;25800;-58
2023/02/26 07:00:05;;;;;;;;;;;;;;;-0.30;92.01;99901.70;106261;1271;22640;-57
2023/02/26 07:02:34;;;;;;;;;;;;;;;-0.31;91.45;99903.67;106265;1264;24337;-58
2023/02/26 07:05:03;;;;;;;;;;;;;;;-0.31;91.04;99908.46;106207;1271;22525;-58
2023/02/26 07:07:33;;;;;;;;;;;;;;;-0.31;91.22;99910.25;106269;1275;26519;-56
2023/02/26 07:10:02;;;;;;;;;;;;;;;-0.31;91.19;99916.28;106503;1278;22507;-57
2023/02/26 07:12:31;;;;;;;;;;;;;;;-0.29;91.62;99916.89;106282;1272;25368;-58
2023/02/26 07:15:00;;;;;;;;;;;;;;;-0.25;91.82;99923.95;106255;1272;25315;-57
2023/02/26 07:17:30;;;;;;;;;;;;;;;-0.21;91.93;99928.54;106363;1271;25377;-60
2023/02/26 07:20:05;;;;;;;;;;;;;;;-0.18;91.37;99934.44;106462;1268;26385;-59
2023/02/26 07:22:34;;;;;;;;;;;;;;;-0.17;91.20;99934.73;106311;1267;22589;-55
2023/02/26 07:25:04;;;;;;;;;;;;;;;-0.14;91.55;99943.40;106296;1278;25346;-58
2023/02/26 07:27:33;;;;;;;;;;;;;;;-0.10;91.39;99949.05;106305;1278;22568;-58
2023/02/26 07:30:04;;;;;;;;;;;;;;;-0.09;90.81;99952.42;106279;1271;22544;-57
2023/02/26 07:32:33;;;;;;;;;;;;;;;-0.07;90.83;99960.86;106276;1275;26517;-58
2023/02/26 07:35:03;;;;;;;;;;;;;;;-0.07;90.85;99961.71;106410;1265;22529;-57
2023/02/26 07:37:32;;;;;;;;;;;;;;;-0.06;90.86;99968.36;106295;1274;22852;-59
2023/02/26 07:40:02;;;;;;;;;;;;;;;-0.07;90.76;99974.19;106519;1278;24287;-58
2023/02/26 07:42:31;;;;;;;;;;;;;;;-0.06;91.07;99974.80;106265;1278;22523;-58
2023/02/26 07:45:01;;;;;;;;;;;;;;;-0.06;90.98;99978.02;106241;1278;22778;-58
2023/02/26 07:47:30;;;;;;;;;;;;;;;-0.06;90.91;99981.54;106347;1265;24287;-55
2023/02/26 07:49:59;;;;;;;;;;;;;;;-0.04;91.26;99985.90;106535;1278;25279;-60
2023/02/26 07:52:29;;;;;;;;;;;;;;;-0.02;91.16;99987.44;106276;1265;24356;-59
2023/02/26 07:54:58;;;;;;;;;;;;;;;-0.01;91.23;99990.41;106341;1278;24273;-58
2023/02/26 07:57:27;;;;;;;;;;;;;;;-0.00;91.14;99998.40;106315;1278;25339;-59
2023/02/26 07:59:56;;;;;;;;;;;;;;;0.03;91.54;100002.36;106236;1271;25164;-58
2023/02/26 08:02:25;;;;;;;;;;;;;;;0.04;91.20;100009.32;106277;1278;22638;-57
2023/02/26 08:04:55;;;;;;;;;;;;;;;0.04;91.10;100010.96;106305;1278;22513;-56
2023/02/26 08:07:24;;;;;;;;;;;;;;;0.07;91.27;100013.81;106384;1256;25316;-58
2023/02/26 08:09:53;;;;;;;;;;;;;;;0.09;91.41;100017.48;106249;1278;22623;-58
2023/02/26 08:12:23;;;;;;;;;;;;;;;0.09;90.98;100018.02;106388;1265;24437;-58
2023/02/26 08:14:52;;;;;;;;;;;;;;;0.09;91.09;100022.41;106409;1278;22538;-56
2023/02/26 08:17:21;;;;;;;;;;;;;;;0.11;91.19;100025.37;106351;1264;22555;-55
2023/02/26 08:19:50;;;;;;;;;;;;;;;0.12;91.56;100025.73;106441;1260;24259;-59
2023/02/26 08:22:20;;;;;;;;;;;;;;;0.17;91.57;100032.42;106481;1270;25554;-58
2023/02/26 08:24:49;;;;;;;;;;;;;;;0.19;91.37;100033.41;106385;1278;22528;-56
2023/02/26 08:27:18;;;;;;;;;;;;;;;0.24;91.67;100037.91;106434;1271;22743;-56
2023/02/26 08:29:49;;;;;;;;;;;;;;;0.28;91.65;100037.14;106307;1271;23138;-56
2023/02/26 08:32:21;;;;;;;;;;;;;;;0.30;91.21;100036.31;106560;1274;24207;-58
2023/02/26 08:34:50;;;;;;;;;;;;;;;0.33;91.18;100038.70;106312;1264;22510;-58
2023/02/26 08:37:23;;;;;;;;;;;;;;;0.33;90.22;100043.08;106317;1278;22539;-57
2023/02/26 08:39:52;;;;;;;;;;;;;;;0.32;90.69;100042.40;106352;1278;24202;-57
2023/02/26 08:42:21;;;;;;;;;;;;;;;0.34;90.82;100053.91;106268;1265;25601;-55
2023/02/26 08:44:51;;;;;;;;;;;;;;;0.36;90.53;100061.64;106289;1265;22513;-58
2023/02/26 08:47:20;;;;;;;;;;;;;;;0.35;90.25;100068.16;106291;1278;24324;-55
2023/02/26 08:49:50;;;;;;;;;;;;;;;0.37;90.66;100070.25;106484;1268;22516;-57
2023/02/26 08:52:19;;;;;;;;;;;;;;;0.40;90.72;100071.94;106467;1265;24387;-54
2023/02/26 08:54:48;;;;;;;;;;;;;;;0.44;90.80;100073.44;106117;1271;183972;-57
2023/02/26 08:57:17;;;;;;;;;;;;;;;0.48;90.56;100077.32;106287;1278;22623;-58
2023/02/26 08:59:46;;;;;;;;;;;;;;;0.48;89.68;100087.76;106345;1264;22578;-58
2023/02/26 09:02:16;;;;;;;;;;;;;;;0.45;89.66;100087.70;106423;1268;22511;-56
2023/02/26 09:04:46;;;;;;;;;;;;;;;0.42;89.71;100092.23;106431;1263;25339;-57
2023/02/26 09:07:15;;;;;;;;;;;;;;;0.43;90.33;100096.38;106501;1272;23882;-57
2023/02/26 09:09:44;;;;;;;;;;;;;;;0.45;90.46;100100.27;106359;1278;22525;-57
2023/02/26 09:12:15;;;;;;;;;;;;;;;0.45;90.19;100106.16;106271;1269;25412;-57
2023/02/26 09:14:45;;;;;;;;;;;;;;;0.45;89.98;100103.33;106363;1274;24218;-55
2023/02/26 09:17:14;;;;;;;;;;;;;;;0.50;90.37;100111.50;106329;1278;22523;-57
2023/02/26 09:19:43;;;;;;;;;;;;;;;0.54;90.24;100115.21;106258;1274;24270;-57
2023/02/26 09:22:13;;;;;;;;;;;;;;;0.57;90.25;100118.77;106430;1272;25719;-57
2023/02/26 09:24:42;;;;;;;;;;;;;;;0.62;90.31;100124.43;106457;1272;22514;-58
2023/02/26 09:27:11;;;;;;;;;;;;;;;0.66;90.27;100130.65;106388;1263;23021;-58
2023/02/26 09:29:40;;;;;;;;;;;;;;;0.69;90.28;100134.45;106458;1278;22556;-56
2023/02/26 09:32:10;;;;;;;;;;;;;;;0.73;90.58;100135.48;106290;1274;25473;-55
2023/02/26 09:34:39;;;;;;;;;;;;;;;0.77;90.20;100142.11;106186;1273;22521;-56
2023/02/26 09:37:09;;;;;;;;;;;;;;;0.80;89.94;100148.11;106322;1271;24303;-55
2023/02/26 09:39:39;;;;;;;;;;;;;;;0.82;90.05;100150.75;106303;1274;22528;-55
2023/02/26 09:42:16;;;;;;;;;;;;;;;0.80;89.22;100156.75;106303;1271;25337;-56
2023/02/26 09:44:47;;;;;;;;;;;;;;;0.74;89.91;100156.69;106226;1278;22627;-57
2023/02/26 09:47:19;;;;;;;;;;;;;;;0.69;90.21;100159.95;106873;1267;24220;-56
2023/02/26 09:49:51;;;;;;;;;;;;;;;0.68;90.73;100169.92;106257;1274;24256;-57
2023/02/26 09:52:24;;;;;;;;;;;;;;;0.70;91.10;100174.16;106211;1275;23019;-55
2023/02/26 09:54:54;;;;;;;;;;;;;;;0.75;91.13;100183.98;106649;1271;24291;-55
2023/02/26 09:57:27;;;;;;;;;;;;;;;0.78;91.45;100186.13;106360;1272;24212;-57
2023/02/26 09:59:56;;;;;;;;;;;;;;;0.84;91.33;100186.36;106304;1278;25517;-57
2023/02/26 10:02:29;;;;;;;;;;;;;;;0.89;91.15;100196.26;106750;1271;22576;-58
2023/02/26 10:05:05;;;;;;;;;;;;;;;0.96;91.15;100199.23;106275;1278;25312;-56
2023/02/26 10:07:39;;;;;;;;;;;;;;;1.00;90.79;100198.06;106519;1275;22561;-55
2023/02/26 10:10:18;;;;;;;;;;;;;;;1.04;90.95;100202.57;106474;1278;22514;-57
2023/02/26 10:12:49;;;;;;;;;;;;;;;1.09;90.79;100204.61;106384;1278;22620;-55
2023/02/26 10:15:20;;;;;;;;;;;;;;;1.11;90.70;100205.52;106194;1278;22510;-57
2023/02/26 10:18:03;;;;;;;;;;;;;;;1.13;90.20;100208.48;106219;1278;25481;-57
2023/02/26 10:20:37;;;;;;;;;;;;;;;1.13;89.83;100209.02;106343;1278;22518;-57
2023/02/26 10:23:18;;;;;;;;;;;;;;;1.16;90.18;100209.70;106268;1278;22973;-57
2023/02/26 10:25:49;;;;;;;;;;;;;;;1.21;90.30;100216.77;106170;1263;25431;-55
2023/02/26 10:28:33;;;;;;;;;;;;;;;1.28;89.87;100222.62;106278;1278;22528;-58
2023/02/26 10:31:05;;;;;;;;;;;;;;;1.34;89.00;100223.38;106452;1274;25278;-57
2023/02/26 10:33:38;;;;;;;;;;;;;;;1.40;89.34;100225.88;106318;1271;22514;-57
2023/02/26 10:36:17;;;;;;;;;;;;;;;1.46;89.31;100227.44;106241;1272;22556;-58
2023/02/26 10:38:49;;;;;;;;;;;;;;;1.50;88.61;100232.72;106292;1278;24269;-56
2023/02/26 10:41:21;;;;;;;;;;;;;;;1.52;89.00;100233.86;106291;1272;22635;-55
2023/02/26 10:43:56;;;;;;;;;;;;;;;1.54;89.09;100234.53;106292;1278;24350;-55
2023/02/26 10:46:31;;;;;;;;;;;;;;;1.58;89.20;100236.59;106283;1268;22515;-55
2023/02/26 10:49:09;;;;;;;;;;;;;;;1.62;88.85;100238.27;106261;1274;22731;-55
2023/02/26 10:51:39;;;;;;;;;;;;;;;1.67;89.30;100236.36;106251;1272;24271;-57
2023/02/26 10:54:15;;;;;;;;;;;;;;;1.69;88.31;100242.70;106292;1264;23021;-57
2023/02/26 10:56:45;;;;;;;;;;;;;;;1.67;88.41;100244.14;106348;1278;22539;-58
2023/02/26 10:59:16;;;;;;;;;;;;;;;1.65;88.05;100246.52;106403;1271;22522;-56
2023/02/26 11:01:47;;;;;;;;;;;;;;;1.65;88.30;100250.23;106263;1278;25309;-57
2023/02/26 11:04:17;;;;;;;;;;;;;;;1.67;87.69;100254.46;106196;1275;22519;-57
2023/02/26 11:06:49;;;;;;;;;;;;;;;1.68;87.50;100253.41;106313;1278;25236;-59
2023/02/26 11:09:22;;;;;;;;;;;;;;;1.71;87.79;100252.59;106267;1272;25253;-57
2023/02/26 11:11:53;;;;;;;;;;;;;;;1.77;88.13;100257.43;106263;1278;22516;-56
2023/02/26 11:14:23;;;;;;;;;;;;;;;1.83;88.19;100261.58;106324;1264;24436;-56
2023/02/26 11:16:53;;;;;;;;;;;;;;;1.87;88.20;100260.95;106326;1271;24333;-55
2023/02/26 11:19:27;;;;;;;;;;;;;;;1.91;87.24;100265.77;106352;1271;22536;-56
2023/02/26 11:21:58;;;;;;;;;;;;;;;1.89;86.96;100267.20;106319;1275;22514;-59
2023/02/26 11:24:30;;;;;;;;;;;;;;;1.88;87.12;100268.95;106409;1264;26570;-58
2023/02/26 11:27:02;;;;;;;;;;;;;;;1.92;87.84;100266.67;106307;1278;24227;-59
2023/02/26 11:29:37;;;;;;;;;;;;;;;1.98;87.58;100266.34;106560;1271;23904;-59
2023/02/26 11:32:07;;;;;;;;;;;;;;;2.04;87.59;100271.42;106520;1273;24221;-58
2023/02/26 11:34:37;;;;;;;;;;;;;;;2.11;87.09;100277.98;106313;1278;22515;-59
2023/02/26 11:37:06;;;;;;;;;;;;;;;2.12;86.26;100275.21;106419;1274;22643;-59
2023/02/26 11:39:38;;;;;;;;;;;;;;;2.16;86.94;100279.15;106409;1265;22518;-58
2023/02/26 11:42:08;;;;;;;;;;;;;;;2.22;86.70;100279.36;106291;1272;22510;-55
2023/02/26 11:44:38;;;;;;;;;;;;;;;2.29;86.76;100286.80;106536;1278;22527;-56
2023/02/26 11:47:12;;;;;;;;;;;;;;;2.33;86.37;100289.92;106607;1278;24279;-58
2023/02/26 11:49:44;;;;;;;;;;;;;;;2.39;86.16;100290.06;106355;1275;22537;-58
2023/02/26 11:52:19;;;;;;;;;;;;;;;2.42;85.55;100294.56;106447;1272;23460;-57
2023/02/26 11:54:50;;;;;;;;;;;;;;;2.44;85.15;100294.67;106373;1275;22550;-57
2023/02/26 11:57:21;;;;;;;;;;;;;;;2.46;84.84;100294.88;106325;1278;22556;-56
2023/02/26 11:59:52;;;;;;;;;;;;;;;2.50;85.20;100297.40;106305;1278;22511;-57
2023/02/26 12:02:22;;;;;;;;;;;;;;;2.56;85.63;100299.27;106293;1271;22521;-58
2023/02/26 12:04:53;;;;;;;;;;;;;;;2.54;83.70;100301.75;106353;1271;22632;-58
2023/02/26 12:07:23;;;;;;;;;;;;;;;2.49;84.50;100307.27;106259;1278;22510;-58
2023/02/26 12:09:52;;;;;;;;;;;;;;;2.40;84.91;100311.37;106263;1273;24377;-56
2023/02/26 12:12:32;;;;;;;;;;;;;;;2.29;85.90;100313.55;106490;1272;24263;-57
2023/02/26 12:15:10;;;;;;;;;;;;;;;2.19;86.26;100321.04;106199;1278;22515;-57
2023/02/26 12:17:43;;;;;;;;;;;;;;;2.12;86.41;100318.02;106200;1278;24387;-59
2023/02/26 12:20:18;;;;;;;;;;;;;;;2.09;86.91;100321.84;106313;1274;22527;-55
2023/02/26 12:22:53;;;;;;;;;;;;;;;2.09;87.27;100324.90;106538;1271;24206;-59
2023/02/26 12:25:28;;;;;;;;;;;;;;;2.11;87.23;100324.09;106353;1274;24353;-57
2023/02/26 12:28:11;;;;;;;;;;;;;;;2.14;87.48;100320.02;106393;1278;22526;-55
2023/02/26 12:30:48;;;;;;;;;;;;;;;2.20;87.59;100329.04;106073;1280;24909;-57
2023/02/26 12:33:24;;;;;;;;;;;;;;;2.22;87.28;100327.35;106165;1268;25312;-58
2023/02/26 12:36:08;;;;;;;;;;;;;;;2.28;87.47;100326.80;106120;1282;25403;-56
2023/02/26 12:38:43;;;;;;;;;;;;;;;2.31;87.22;100330.91;106084;1282;24272;-56
2023/02/26 12:41:28;;;;;;;;;;;;;;;2.34;87.15;100334.31;106194;1267;22517;-57
2023/02/26 12:44:00;;;;;;;;;;;;;;;2.40;87.11;100341.20;106002;1278;22697;-58
2023/02/26 12:46:47;;;;;;;;;;;;;;;2.42;85.66;100340.63;106239;1282;22532;-58
2023/02/26 12:49:22;;;;;;;;;;;;;;;2.41;85.77;100340.33;106105;1283;22533;-58
2023/02/26 12:51:57;;;;;;;;;;;;;;;2.40;84.94;100341.13;106094;1280;25391;-55
2023/02/26 12:54:36;;;;;;;;;;;;;;;2.38;84.85;100340.29;106137;1275;24256;-56
2023/02/26 12:57:16;;;;;;;;;;;;;;;2.37;84.86;100342.89;106144;1282;22691;-57